Time;durP1;ratioP1;P1;durP2;ratioP2;P2;SDS_P1;SDS_P2;PMS_P1;PMS_P2;Temp;Humidity;BMP_temperature;BMP_pressure;BME280_temperature;BME280_humidity;BME280_pressure;Samples;Min_cycle;Max_cycle;Signal;HPM_P1;HPM_P2
2022/05/10 00:03:41;;;;;;;2.60;2.40;;;;;;;11.50;82.70;99842.34;8367777;28;20055;-72
2022/05/10 00:07:42;;;;;;;5.53;2.65;;;;;;;11.46;83.11;99837.97;8381785;28;20364;-72
2022/05/10 00:11:44;;;;;;;4.57;2.83;;;;;;;11.37;83.47;99826.75;8357811;28;20143;-72
2022/05/10 00:15:47;;;;;;;5.32;2.70;;;;;;;11.33;84.09;99832.81;8369806;28;20480;-72
2022/05/10 00:19:48;;;;;;;4.28;3.05;;;;;;;11.29;83.71;99828.47;8363921;28;20143;-72
2022/05/10 00:23:50;;;;;;;5.93;2.70;;;;;;;11.32;84.06;99828.47;8352057;28;20045;-71
2022/05/10 00:27:53;;;;;;;2.47;2.28;;;;;;;11.29;83.62;99826.72;8351826;28;20489;-72
2022/05/10 00:31:54;;;;;;;3.80;2.90;;;;;;;11.22;84.06;99826.75;8365901;28;20064;-72
2022/05/10 00:35:57;;;;;;;3.40;2.63;;;;;;;11.14;83.85;99829.34;8361791;28;20163;-72
2022/05/10 00:39:59;;;;;;;2.65;2.42;;;;;;;11.06;84.08;99831.94;8374251;28;20512;-72
2022/05/10 00:44:17;;;;;;;6.13;2.70;;;;;;;10.98;84.87;99831.06;8369473;28;20040;-72
2022/05/10 00:48:27;;;;;;;5.47;2.88;;;;;;;10.88;84.95;99829.31;8358941;28;20049;-72
2022/05/10 00:52:51;;;;;;;4.60;2.75;;;;;;;10.91;85.14;99824.13;8378863;28;20045;-72
2022/05/10 00:57:21;;;;;;;2.60;2.38;;;;;;;10.90;85.42;99823.25;8357877;28;20063;-71
2022/05/10 01:01:29;;;;;;;3.58;2.22;;;;;;;10.89;85.17;99825.84;8354904;28;20076;-71
2022/05/10 01:06:03;;;;;;;2.83;2.63;;;;;;;10.85;85.35;99817.19;8369496;28;20041;-72
2022/05/10 01:10:10;;;;;;;2.88;2.60;;;;;;;10.68;85.67;99813.69;8368564;28;20048;-72
2022/05/10 01:14:18;;;;;;;2.20;1.90;;;;;;;10.65;85.81;99810.22;8374579;28;20041;-72
2022/05/10 01:18:22;;;;;;;2.53;2.15;;;;;;;10.64;85.90;99804.19;8337436;28;20068;-72
2022/05/10 01:22:26;;;;;;;2.30;1.80;;;;;;;10.58;85.65;99792.03;8359685;28;20143;-71
2022/05/10 01:26:56;;;;;;;2.20;2.10;;;;;;;10.48;86.05;99779.91;8377819;28;20037;-72
2022/05/10 01:31:06;;;;;;;4.18;2.58;;;;;;;10.44;85.54;99775.56;8348252;28;20506;-72
2022/05/10 01:35:12;;;;;;;2.60;2.40;;;;;;;10.38;85.70;99778.13;8338763;28;20056;-72
2022/05/10 01:39:23;;;;;;;2.47;2.28;;;;;;;10.27;86.12;99767.75;8348352;28;20045;-72
2022/05/10 01:43:40;;;;;;;6.03;2.28;;;;;;;10.27;86.42;99769.47;8346575;28;20121;-72
2022/05/10 01:47:47;;;;;;;2.50;2.30;;;;;;;10.24;86.76;99770.34;8340630;28;20147;-72
2022/05/10 01:51:58;;;;;;;6.22;2.70;;;;;;;10.18;86.90;99761.59;8340450;28;20052;-72
2022/05/10 01:56:19;;;;;;;2.97;2.33;;;;;;;10.12;87.13;99759.00;8344004;28;20080;-72
2022/05/10 02:00:23;;;;;;;4.82;2.70;;;;;;;10.10;86.66;99759.00;8360017;28;20600;-72
2022/05/10 02:04:33;;;;;;;3.05;2.45;;;;;;;10.12;87.38;99757.28;8345851;28;20037;-72
2022/05/10 02:08:56;;;;;;;2.42;2.30;;;;;;;10.12;87.25;99759.88;8331138;28;20037;-72
2022/05/10 02:13:16;;;;;;;2.50;2.30;;;;;;;10.12;86.91;99748.63;8347807;28;20049;-72
2022/05/10 02:17:34;;;;;;;3.60;2.55;;;;;;;10.10;86.53;99752.94;8340357;28;20073;-72
2022/05/10 02:21:42;;;;;;;3.10;2.25;;;;;;;10.03;86.70;99754.63;8340051;28;20116;-72
2022/05/10 02:25:49;;;;;;;2.63;2.42;;;;;;;9.96;86.45;99753.75;8330236;28;20433;-72
2022/05/10 02:30:00;;;;;;;3.35;2.88;;;;;;;9.92;86.73;99754.63;8344124;28;20147;-72
2022/05/10 02:34:04;;;;;;;2.78;2.25;;;;;;;9.91;86.71;99757.22;8354476;28;20775;-72
2022/05/10 02:38:08;;;;;;;2.72;2.17;;;;;;;9.89;86.68;99758.94;8383082;28;20074;-72
2022/05/10 02:42:12;;;;;;;2.40;2.20;;;;;;;9.83;87.70;99758.88;8363503;28;20394;-72
2022/05/10 02:46:14;;;;;;;2.47;2.38;;;;;;;9.87;87.44;99768.41;8359712;28;20139;-72
2022/05/10 02:50:33;;;;;;;3.72;2.65;;;;;;;9.81;87.39;99758.00;8354080;28;20615;-71
2022/05/10 02:54:35;;;;;;;3.03;2.58;;;;;;;9.78;87.62;99752.81;8367011;28;20468;-72
2022/05/10 02:58:55;;;;;;;6.20;2.40;;;;;;;9.72;87.16;99764.03;8385557;28;20055;-72
2022/05/10 03:03:04;;;;;;;3.88;2.38;;;;;;;9.71;87.78;99758.84;8354961;28;20059;-72
2022/05/10 03:07:08;;;;;;;4.78;2.42;;;;;;;9.71;87.99;99751.06;8382551;28;20064;-72
2022/05/10 03:11:09;;;;;;;2.13;2.00;;;;;;;9.71;87.64;99754.53;8349315;28;20131;-72
2022/05/10 03:15:10;;;;;;;2.38;2.13;;;;;;;9.62;87.42;99751.88;8357404;28;20047;-72
2022/05/10 03:19:12;;;;;;;3.95;2.88;;;;;;;9.59;87.97;99746.69;8373691;28;20055;-72
2022/05/10 03:23:14;;;;;;;2.33;2.20;;;;;;;9.58;87.97;99751.00;8359716;28;20068;-72
2022/05/10 03:27:18;;;;;;;4.85;2.67;;;;;;;9.58;88.07;99747.53;8373905;28;20436;-71
2022/05/10 03:31:22;;;;;;;6.93;3.45;;;;;;;9.58;87.83;99751.00;8342690;28;20084;-72
2022/05/10 03:35:24;;;;;;;4.93;3.33;;;;;;;9.56;87.91;99744.06;8359649;28;20049;-72
2022/05/10 03:39:26;;;;;;;4.13;3.73;;;;;;;9.52;88.07;99750.09;8374767;28;20048;-71
2022/05/10 03:43:27;;;;;;;4.15;3.00;;;;;;;9.50;88.36;99752.66;8360778;28;20048;-72
2022/05/10 03:47:30;;;;;;;2.97;2.73;;;;;;;9.48;88.12;99746.59;8378692;28;20687;-72
2022/05/10 03:51:32;;;;;;;3.70;2.80;;;;;;;9.46;88.52;99748.31;8366910;28;20055;-72
2022/05/10 03:55:33;;;;;;;3.40;3.08;;;;;;;9.44;88.37;99738.81;8349541;28;20048;-72
2022/05/10 03:59:41;;;;;;;2.88;2.67;;;;;;;9.41;88.26;99738.81;8369314;28;20083;-72
2022/05/10 04:03:42;;;;;;;3.35;2.80;;;;;;;9.39;88.17;99736.19;8365219;28;20037;-72
2022/05/10 04:07:44;;;;;;;2.90;2.70;;;;;;;9.33;88.65;99734.41;8381480;28;20132;-72
2022/05/10 04:11:46;;;;;;;6.13;3.53;;;;;;;9.29;89.00;99731.81;8360039;28;20784;-72
2022/05/10 04:15:47;;;;;;;5.20;3.73;;;;;;;9.25;88.76;99730.06;8370365;28;20369;-73
2022/05/10 04:19:49;;;;;;;4.35;3.40;;;;;;;9.27;88.77;99736.97;8362414;28;20379;-72
2022/05/10 04:23:51;;;;;;;4.40;2.85;;;;;;;9.19;89.58;99746.44;8379211;28;20083;-72
2022/05/10 04:27:53;;;;;;;5.35;3.50;;;;;;;9.29;90.08;99747.34;8359505;28;20147;-72
2022/05/10 04:31:54;;;;;;;3.97;3.37;;;;;;;9.33;89.83;99739.59;8382355;28;20060;-72
2022/05/10 04:35:56;;;;;;;4.35;3.45;;;;;;;9.38;90.31;99745.69;8362991;28;20369;-72
2022/05/10 04:44:18;;;;;;;4.07;3.50;;;;;;;9.52;89.71;99745.78;8351085;28;20069;-72
2022/05/10 04:48:20;;;;;;;3.08;2.85;;;;;;;9.50;89.60;99750.06;8362268;28;20049;-72
2022/05/10 04:52:21;;;;;;;4.05;3.63;;;;;;;9.60;89.58;99744.09;8336513;28;20071;-73
2022/05/10 04:56:23;;;;;;;3.33;2.50;;;;;;;9.66;90.02;99751.88;8379752;28;20075;-72
2022/05/10 05:00:26;;;;;;;7.78;3.90;;;;;;;9.75;89.52;99758.84;8349562;28;20064;-72
2022/05/10 05:04:27;;;;;;;3.42;3.05;;;;;;;9.85;89.48;99752.84;8348457;28;20307;-72
2022/05/10 05:08:29;;;;;;;3.30;3.00;;;;;;;9.92;89.08;99762.41;8366222;28;20072;-72
2022/05/10 05:12:32;;;;;;;2.57;2.37;;;;;;;10.03;89.08;99759.81;8384644;28;20041;-72
2022/05/10 05:16:34;;;;;;;3.28;3.00;;;;;;;10.20;89.09;99760.75;8363261;28;20151;-72
2022/05/10 05:20:38;;;;;;;3.15;2.95;;;;;;;10.46;88.54;99766.06;8356294;28;20052;-73
2022/05/10 05:24:40;;;;;;;4.20;3.53;;;;;;;10.65;87.59;99760.91;8378954;28;20798;-73
2022/05/10 05:28:41;;;;;;;5.50;3.43;;;;;;;10.81;87.17;99757.44;8376062;28;20044;-73
2022/05/10 05:32:43;;;;;;;3.42;3.13;;;;;;;11.40;85.78;99761.72;8367444;28;20123;-73
2022/05/10 05:37:32;;;;;;;2.83;2.63;;;;;;;11.78;83.66;99762.53;8359735;28;20139;-73
2022/05/10 05:41:06;;;;;;;2.97;2.70;;;;;;;12.03;82.84;99757.25;8372048;28;20073;-74
2022/05/10 05:45:10;;;;;;;2.97;2.65;;;;;;;12.25;82.29;99758.00;8342400;28;20212;-74
2022/05/10 05:49:11;;;;;;;3.55;2.47;;;;;;;12.59;80.56;99751.72;8345735;28;20342;-74
2022/05/10 05:53:13;;;;;;;4.20;3.80;;;;;;;12.97;79.40;99753.16;8357135;28;20055;-74
2022/05/10 05:57:15;;;;;;;4.57;2.88;;;;;;;13.30;78.36;99765.09;8365616;28;20045;-74
2022/05/10 06:01:17;;;;;;;4.53;2.33;;;;;;;13.65;77.62;99754.28;8374552;28;20059;-73
2022/05/10 06:05:19;;;;;;;;;;;;;;;13.96;75.61;99757.38;8373681;28;20086;-74
2022/05/10 06:09:22;;;;;;;4.50;3.05;;;;;;;14.29;74.52;99761.31;8366704;28;19935;-74
2022/05/10 06:13:24;;;;;;;5.85;3.35;;;;;;;14.80;73.89;99767.56;8365677;28;20131;-74
2022/05/10 06:17:26;;;;;;;7.00;3.10;;;;;;;15.35;71.99;99764.03;8372753;28;20187;-74
2022/05/10 06:21:29;;;;;;;3.00;2.80;;;;;;;15.93;70.23;99754.22;8361030;28;20052;-74
2022/05/10 06:25:31;;;;;;;5.65;3.83;;;;;;;16.45;68.63;99756.59;8366270;28;20358;-74
2022/05/10 06:29:34;;;;;;;5.55;3.67;;;;;;;17.02;67.29;99755.28;8361032;28;20140;-74
2022/05/10 06:33:36;;;;;;;4.78;3.47;;;;;;;17.52;64.76;99754.84;8352660;28;20131;-74
2022/05/10 06:41:58;;;;;;;5.93;3.38;;;;;;;18.28;61.74;99748.34;8358558;28;20041;-75
2022/05/10 06:45:59;;;;;;;8.23;3.85;;;;;;;18.61;61.21;99749.09;8362155;28;20057;-75
2022/05/10 06:50:01;;;;;;;6.70;3.88;;;;;;;18.96;60.21;99750.63;8366504;28;20045;-74
2022/05/10 06:54:03;;;;;;;4.10;3.70;;;;;;;19.25;59.53;99750.53;8351078;28;20559;-74
2022/05/10 06:58:05;;;;;;;7.97;3.60;;;;;;;19.49;58.48;99754.06;8360269;28;20322;-75
2022/05/10 07:02:06;;;;;;;4.72;3.45;;;;;;;19.66;57.61;99744.75;8384496;28;20059;-74
2022/05/10 07:06:10;;;;;;;6.93;3.45;;;;;;;19.97;57.20;99750.63;8360227;28;20036;-75
2022/05/10 07:10:14;;;;;;;3.25;3.03;;;;;;;20.08;54.58;99752.84;8372370;28;20045;-75
2022/05/10 07:14:15;;;;;;;4.05;2.72;;;;;;;20.15;54.37;99749.09;8370708;28;20044;-74
2022/05/10 07:18:18;;;;;;;3.25;2.95;;;;;;;20.11;54.23;99744.84;8368049;28;20163;-75
2022/05/10 07:22:19;;;;;;;8.15;3.55;;;;;;;20.19;55.13;99740.13;8363831;28;20099;-74
2022/05/10 07:26:21;;;;;;;4.90;2.95;;;;;;;20.37;53.75;99747.34;8377559;28;20043;-73
2022/05/10 07:30:24;;;;;;;4.15;3.22;;;;;;;20.50;54.45;99751.28;8374716;28;20075;-74
2022/05/10 07:34:25;;;;;;;4.53;2.50;;;;;;;20.88;53.83;99748.00;8378926;28;20080;-74
2022/05/10 07:38:27;;;;;;;3.55;2.85;;;;;;;21.26;54.03;99747.31;8348838;28;20141;-74
2022/05/10 07:42:28;;;;;;;5.32;2.95;;;;;;;21.47;51.41;99749.94;8351452;28;20457;-74
2022/05/10 07:46:30;;;;;;;5.93;2.55;;;;;;;21.63;51.30;99751.00;8335997;28;20062;-74
2022/05/10 07:50:33;;;;;;;2.50;2.33;;;;;;;21.86;50.66;99747.34;8347380;28;20759;-74
2022/05/10 07:54:36;;;;;;;4.20;2.50;;;;;;;22.07;50.36;99743.75;8377861;28;20763;-74
2022/05/10 07:58:38;;;;;;;4.18;3.15;;;;;;;22.35;49.51;99737.19;8371941;28;20075;-74
2022/05/10 08:02:44;;;;;;;3.08;2.35;;;;;;;22.69;49.35;99737.28;8353845;28;20056;-74
2022/05/10 08:06:46;;;;;;;3.10;2.08;;;;;;;23.12;49.81;99740.50;8358250;28;20452;-74
2022/05/10 08:10:49;;;;;;;2.88;2.00;;;;;;;23.27;48.29;99739.72;8366747;28;20128;-75
2022/05/10 08:14:50;;;;;;;3.90;1.85;;;;;;;23.56;48.19;99732.06;8361896;28;20048;-74
2022/05/10 08:18:52;;;;;;;8.98;2.85;;;;;;;23.75;46.82;99731.06;8355786;28;20091;-74
2022/05/10 08:22:53;;;;;;;6.53;1.90;;;;;;;23.77;46.01;99733.63;8347306;28;20083;-74
2022/05/10 08:26:55;;;;;;;2.15;1.88;;;;;;;24.08;47.18;99723.09;8373033;28;20048;-74
2022/05/10 08:30:58;;;;;;;3.80;1.63;;;;;;;24.21;47.70;99725.91;8345348;28;20041;-74
2022/05/10 08:35:00;;;;;;;2.40;1.58;;;;;;;24.53;47.09;99721.50;8368411;28;20053;-72
2022/05/10 08:39:02;;;;;;;4.88;2.10;;;;;;;24.63;45.61;99719.19;8364701;28;20147;-74
2022/05/10 08:43:07;;;;;;;;;;;;;;;24.71;45.59;99720.44;8355952;28;20632;-73
2022/05/10 08:47:12;;;;;;;2.03;1.90;;;;;;;24.41;44.01;99719.50;8350520;28;19938;-73
2022/05/10 08:51:15;;;;;;;3.13;1.90;;;;;;;24.47;44.24;99719.19;8360669;28;20053;-73
2022/05/10 08:55:23;;;;;;;2.70;1.63;;;;;;;24.55;45.63;99710.78;8351098;28;20102;-74
2022/05/10 08:59:38;;;;;;;2.50;1.80;;;;;;;24.58;45.17;99715.91;8349608;28;20106;-74
2022/05/10 09:03:50;;;;;;;2.38;1.90;;;;;;;24.86;43.96;99716.06;8350462;28;20068;-74
2022/05/10 09:07:59;;;;;;;3.30;2.30;;;;;;;25.11;42.71;99710.19;8367923;28;20048;-74
2022/05/10 09:12:16;;;;;;;3.75;1.85;;;;;;;25.51;43.05;99715.81;8367491;28;20048;-75
2022/05/10 09:16:18;;;;;;;3.40;1.70;;;;;;;25.57;42.03;99708.28;8360823;28;20060;-75
2022/05/10 09:20:20;;;;;;;7.28;1.85;;;;;;;25.87;44.15;99710.06;8360895;28;20045;-75
2022/05/10 09:24:33;;;;;;;2.75;1.65;;;;;;;26.12;43.54;99699.56;8369612;28;20437;-75
2022/05/10 09:28:51;;;;;;;4.70;1.90;;;;;;;26.44;42.54;99702.88;8378197;28;20048;-75
2022/05/10 09:38:00;;;;;;;5.55;1.85;;;;;;;26.63;40.85;99699.84;8352561;28;20041;-74
2022/05/10 09:42:01;;;;;;;3.05;1.73;;;;;;;26.57;40.92;99694.94;8374043;28;20059;-74
2022/05/10 09:46:06;;;;;;;2.42;1.63;;;;;;;26.82;41.29;99687.97;8354057;28;20083;-75
2022/05/10 09:50:20;;;;;;;3.30;2.28;;;;;;;26.80;38.85;99688.94;8381861;28;20040;-74
2022/05/10 09:54:42;;;;;;;4.43;1.67;;;;;;;27.11;40.50;99681.59;8368162;28;20536;-74
2022/05/10 09:59:04;;;;;;;6.13;2.45;;;;;;;27.36;40.19;99680.75;8366822;28;20044;-74
2022/05/10 10:03:05;;;;;;;3.72;1.73;;;;;;;27.33;37.99;99683.63;8373352;28;20066;-73
2022/05/10 10:07:13;;;;;;;6.20;1.90;;;;;;;27.41;39.18;99673.28;8368400;28;20127;-73
2022/05/10 10:11:21;;;;;;;4.05;2.17;;;;;;;27.09;37.72;99673.66;8372984;28;20054;-73
2022/05/10 10:15:42;;;;;;;2.50;1.70;;;;;;;27.18;37.45;99674.00;8380360;28;20041;-75
2022/05/10 10:19:49;;;;;;;3.85;1.50;;;;;;;27.39;36.31;99672.53;8340141;28;20364;-74
2022/05/10 10:23:56;;;;;;;3.17;1.35;;;;;;;27.41;36.74;99659.94;8378662;28;20136;-73
2022/05/10 10:28:04;;;;;;;2.85;1.30;;;;;;;27.32;35.62;99666.78;8371269;28;20037;-73
2022/05/10 10:32:23;;;;;;;3.33;1.35;;;;;;;26.96;34.73;99661.25;8371834;28;20771;-74
2022/05/10 10:36:31;;;;;;;0.93;0.80;;;;;;;26.63;31.47;99656.38;8379439;28;20147;-73
2022/05/10 10:40:39;;;;;;;4.22;1.10;;;;;;;26.57;34.35;99660.31;8380785;28;20460;-75
2022/05/10 10:44:46;;;;;;;3.88;1.30;;;;;;;26.63;35.33;99651.91;8361480;28;20045;-73
2022/05/10 10:48:52;;;;;;;0.90;0.90;;;;;;;26.89;36.32;99651.94;8377666;28;20468;-73
2022/05/10 10:52:56;;;;;;;1.33;1.10;;;;;;;27.09;35.20;99644.34;8369655;28;20461;-73
2022/05/10 10:57:36;;;;;;;1.10;0.80;;;;;;;27.37;34.01;99642.44;8352315;28;20041;-73
2022/05/10 11:02:06;;;;;;;1.23;0.85;;;;;;;27.68;31.40;99635.84;8359388;28;20329;-73
2022/05/10 11:06:28;;;;;;;0.80;0.77;;;;;;;27.55;30.22;99629.63;8376203;28;20652;-73
2022/05/10 11:11:00;;;;;;;0.98;0.63;;;;;;;27.74;30.09;99631.88;8345854;28;20131;-73
2022/05/10 11:15:17;;;;;;;3.90;0.70;;;;;;;27.69;27.77;99613.53;8365287;28;20448;-73
2022/05/10 11:19:45;;;;;;;0.68;0.60;;;;;;;27.94;30.16;99616.13;8363779;28;20118;-73
2022/05/10 11:23:56;;;;;;;2.70;0.50;;;;;;;27.89;28.35;99610.28;8374380;28;20123;-74
2022/05/10 11:28:35;;;;;;;1.20;0.57;;;;;;;27.75;28.64;99610.41;8380214;28;20064;-74
2022/05/10 11:32:58;;;;;;;0.63;0.60;;;;;;;27.32;29.71;99607.25;8346375;28;20300;-73
2022/05/10 11:37:03;;;;;;;1.73;0.55;;;;;;;27.42;29.53;99600.28;8363214;28;20044;-73
2022/05/10 11:41:25;;;;;;;0.50;0.50;;;;;;;27.67;28.30;99594.13;8381004;28;20072;-73
2022/05/10 11:46:06;;;;;;;2.25;0.60;;;;;;;27.82;27.85;99592.13;8372084;28;20119;-73
2022/05/10 11:50:29;;;;;;;4.43;0.70;;;;;;;27.92;29.97;99582.50;8383832;28;20382;-74
2022/05/10 11:54:52;;;;;;;1.23;0.60;;;;;;;27.58;29.36;99579.56;8370280;28;20044;-73
2022/05/10 11:58:55;;;;;;;2.28;0.50;;;;;;;27.49;29.60;99576.72;8379166;28;20044;-73
2022/05/10 12:03:02;;;;;;;0.70;0.70;;;;;;;27.20;29.55;99570.78;8377541;28;20135;-74
2022/05/10 12:07:19;;;;;;;2.13;1.00;;;;;;;26.78;30.63;99570.94;8380771;28;20524;-73
2022/05/10 12:11:32;;;;;;;3.67;0.80;;;;;;;26.61;31.33;99573.06;8372984;28;20115;-74
2022/05/10 12:24:24;;;;;;;1.55;0.80;;;;;;;27.34;31.59;99560.84;8351447;28;20078;-75
2022/05/10 12:28:42;;;;;;;2.78;0.80;;;;;;;27.38;31.67;99561.47;8380701;28;20040;-74
2022/05/10 12:32:45;;;;;;;2.40;0.75;;;;;;;27.67;31.79;99540.75;8377224;28;20052;-74
2022/05/10 12:36:46;;;;;;;0.93;0.70;;;;;;;27.94;31.47;99540.53;8373484;28;20147;-74
2022/05/10 12:40:55;;;;;;;;;;;;;;;28.05;30.59;99545.09;8381069;28;20078;-74
2022/05/10 12:45:38;;;;;;;0.50;0.50;;;;;;;27.72;30.56;99540.41;8354975;28;20024;-74
2022/05/10 12:49:52;;;;;;;2.25;0.68;;;;;;;27.66;30.13;99545.25;8365092;28;20052;-75
2022/05/10 12:53:57;;;;;;;2.03;0.68;;;;;;;27.79;29.55;99541.66;8365515;28;20445;-74
2022/05/10 12:58:05;;;;;;;0.63;0.63;;;;;;;27.80;30.46;99533.53;8385471;28;20388;-74
2022/05/10 13:02:13;;;;;;;2.13;0.68;;;;;;;28.05;31.53;99531.75;8380998;28;20086;-74
2022/05/10 13:06:37;;;;;;;1.95;0.55;;;;;;;28.28;31.08;99525.56;8380056;28;20044;-74
2022/05/10 13:10:39;;;;;;;2.53;0.70;;;;;;;27.95;30.21;99528.91;8371398;28;20054;-74
2022/05/10 13:14:45;;;;;;;1.80;0.82;;;;;;;27.52;30.30;99515.16;8363256;28;20036;-75
2022/05/10 13:18:49;;;;;;;1.20;0.70;;;;;;;27.23;32.08;99525.22;8356369;28;20048;-74
2022/05/10 13:22:55;;;;;;;1.70;0.80;;;;;;;26.79;31.21;99510.50;8344211;28;20131;-74
2022/05/10 13:26:59;;;;;;;1.23;0.70;;;;;;;26.82;33.19;99518.28;8377293;28;20567;-74
2022/05/10 13:31:17;;;;;;;5.18;0.98;;;;;;;26.80;32.24;99513.06;8371052;28;20041;-74
2022/05/10 13:35:31;;;;;;;3.50;0.80;;;;;;;26.93;33.68;99507.75;8374214;28;20056;-73
2022/05/10 13:39:33;;;;;;;2.83;0.90;;;;;;;26.87;33.22;99508.16;8379023;28;20052;-73
2022/05/10 13:43:47;;;;;;;3.20;1.20;;;;;;;26.90;33.40;99507.09;8379701;28;20695;-74
2022/05/10 13:47:57;;;;;;;2.45;0.80;;;;;;;26.77;33.62;99499.97;8373730;28;20796;-74
2022/05/10 13:52:05;;;;;;;1.88;0.80;;;;;;;26.75;33.65;99490.34;8359814;28;20056;-74
2022/05/10 13:56:10;;;;;;;1.52;0.88;;;;;;;26.73;34.39;99484.28;8350488;28;20527;-73
2022/05/10 14:00:25;;;;;;;1.95;0.80;;;;;;;26.79;33.33;99486.53;8350912;28;20055;-74
2022/05/10 14:04:29;;;;;;;2.60;0.90;;;;;;;26.48;33.99;99480.66;8372364;28;20091;-73
2022/05/10 14:08:32;;;;;;;0.70;0.70;;;;;;;26.49;33.72;99470.84;8359095;28;20041;-73
2022/05/10 14:12:37;;;;;;;2.38;0.70;;;;;;;26.52;34.92;99469.78;8355377;28;20043;-73
2022/05/10 14:16:41;;;;;;;1.60;0.90;;;;;;;26.42;35.34;99454.44;8351390;28;20088;-73
2022/05/10 14:20:47;;;;;;;3.47;0.75;;;;;;;26.44;35.30;99441.03;8374078;28;20436;-73
2022/05/10 14:24:50;;;;;;;0.63;0.63;;;;;;;26.45;35.54;99440.06;8372196;28;20061;-73
2022/05/10 14:28:54;;;;;;;2.70;0.70;;;;;;;26.48;35.66;99431.84;8354219;28;20470;-73
2022/05/10 14:32:55;;;;;;;2.35;0.90;;;;;;;26.47;35.28;99427.50;8374484;28;20079;-73
2022/05/10 14:36:57;;;;;;;3.97;0.70;;;;;;;26.32;36.59;99423.19;8352694;28;20064;-73
2022/05/10 14:40:59;;;;;;;1.45;0.70;;;;;;;26.10;36.30;99415.81;8358523;28;20136;-73
2022/05/10 14:45:14;;;;;;;1.77;0.80;;;;;;;25.80;36.91;99421.38;8358895;28;20052;-73
2022/05/10 14:49:33;;;;;;;6.57;1.17;;;;;;;25.66;38.16;99410.75;8366263;28;20693;-73
2022/05/10 14:53:37;;;;;;;1.40;1.00;;;;;;;25.42;36.57;99407.91;8352719;28;20037;-73
2022/05/10 14:57:42;;;;;;;1.60;1.08;;;;;;;25.32;37.23;99401.50;8344085;28;20036;-73
2022/05/10 15:01:43;;;;;;;2.25;0.90;;;;;;;25.26;38.35;99406.25;8372632;28;20684;-72
2022/05/10 15:05:46;;;;;;;3.55;0.80;;;;;;;25.30;38.83;99398.91;8371311;28;20044;-73
2022/05/10 15:09:49;;;;;;;1.80;1.00;;;;;;;25.42;38.41;99395.47;8376348;28;20531;-74
2022/05/10 15:13:50;;;;;;;4.68;0.95;;;;;;;25.54;38.00;99400.00;8339564;28;20947;-73
2022/05/10 15:22:14;;;;;;;2.83;1.00;;;;;;;25.74;37.27;99395.19;8380677;28;19974;-74
2022/05/10 15:26:21;;;;;;;3.47;0.80;;;;;;;25.74;39.68;99387.22;8374339;28;20419;-73
2022/05/10 15:30:23;;;;;;;1.50;0.70;;;;;;;25.74;38.59;99381.91;8320860;28;20050;-73
2022/05/10 15:34:43;;;;;;;6.90;0.85;;;;;;;25.70;38.29;99370.63;8354831;28;20140;-74
2022/05/10 15:38:45;;;;;;;0.93;0.80;;;;;;;25.50;38.25;99376.38;8353328;28;20029;-73
2022/05/10 15:42:46;;;;;;;;;;;;;;;25.39;37.47;99376.22;8354288;28;20119;-74
2022/05/10 15:46:49;;;;;;;1.63;0.80;;;;;;;25.29;38.22;99373.28;8371480;28;20312;-73
2022/05/10 15:50:51;;;;;;;0.95;0.80;;;;;;;25.41;38.90;99366.34;8366216;28;20076;-73
2022/05/10 15:54:52;;;;;;;;;;;;;;;25.66;38.84;99369.06;8366963;28;20120;-73
2022/05/10 15:58:54;;;;;;;1.65;0.73;;;;;;;25.96;38.46;99357.34;8350486;28;19952;-73
2022/05/10 16:02:56;;;;;;;0.80;0.80;;;;;;;26.06;38.57;99355.78;8359645;28;20049;-73
2022/05/10 16:06:58;;;;;;;1.23;0.80;;;;;;;26.03;37.13;99355.97;8369680;28;20049;-73
2022/05/10 16:11:00;;;;;;;1.92;0.80;;;;;;;26.05;37.51;99344.28;8369996;28;20048;-73
2022/05/10 16:15:03;;;;;;;2.50;0.70;;;;;;;26.31;37.63;99347.78;8346697;28;20075;-74
2022/05/10 16:19:08;;;;;;;2.80;0.80;;;;;;;26.53;37.78;99344.50;8373281;28;20045;-73
2022/05/10 16:23:10;;;;;;;0.93;0.60;;;;;;;26.47;36.96;99342.28;8375727;28;20050;-73
2022/05/10 16:31:36;;;;;;;1.40;0.68;;;;;;;25.89;36.87;99333.84;8371053;28;20175;-73
2022/05/10 16:35:39;;;;;;;0.70;0.70;;;;;;;25.56;37.21;99336.94;8356740;28;20100;-73
2022/05/10 16:39:41;;;;;;;4.07;0.90;;;;;;;25.42;37.81;99325.50;8369775;28;20048;-73
2022/05/10 16:43:43;;;;;;;1.30;0.90;;;;;;;25.36;37.85;99323.25;8371720;28;20048;-73
2022/05/10 16:47:45;;;;;;;1.85;1.00;;;;;;;25.25;38.42;99329.28;8345959;28;20036;-73
2022/05/10 16:51:46;;;;;;;1.13;0.70;;;;;;;25.21;37.98;99330.44;8352208;28;20632;-73
2022/05/10 16:55:48;;;;;;;1.60;0.80;;;;;;;25.21;39.37;99325.97;8354691;28;20539;-73
2022/05/10 16:59:49;;;;;;;4.38;0.90;;;;;;;25.15;38.38;99322.88;8372906;28;20045;-73
2022/05/10 17:03:54;;;;;;;1.42;0.95;;;;;;;25.04;39.00;99328.03;8335286;28;20052;-73
2022/05/10 17:07:58;;;;;;;2.75;0.70;;;;;;;25.03;39.65;99328.97;8375969;28;20036;-73
2022/05/10 17:12:01;;;;;;;2.47;0.90;;;;;;;24.88;39.40;99318.34;8352138;28;20106;-73
2022/05/10 17:16:03;;;;;;;2.30;0.88;;;;;;;24.84;39.50;99319.50;8367881;28;20064;-73
2022/05/10 17:20:05;;;;;;;;;;;;;;;24.71;40.31;99313.25;8371121;28;20065;-73
2022/05/10 17:24:08;;;;;;;1.60;0.80;;;;;;;24.54;40.73;99313.47;8347707;28;19939;-73
2022/05/10 17:32:14;;;;;;;0.85;0.70;;;;;;;24.17;41.32;99306.91;8369820;28;20056;-73
2022/05/10 17:36:15;;;;;;;1.70;0.80;;;;;;;24.03;41.72;99305.94;8367647;28;20445;-73
2022/05/10 17:40:17;;;;;;;4.57;1.05;;;;;;;23.89;41.81;99311.25;8345904;28;20303;-72
2022/05/10 17:44:19;;;;;;;1.70;0.80;;;;;;;23.90;42.69;99310.31;8375122;28;20048;-72
2022/05/10 17:48:21;;;;;;;;;;;;;;;23.91;43.28;99311.16;8364674;28;20477;-73
2022/05/10 17:52:23;;;;;;;2.15;1.10;;;;;;;23.85;43.64;99311.50;8371342;28;19924;-73
2022/05/10 17:56:27;;;;;;;4.40;0.90;;;;;;;23.73;44.34;99315.78;8354401;28;20032;-73
2022/05/10 18:00:29;;;;;;;1.15;1.02;;;;;;;23.64;45.00;99313.66;8356892;28;20053;-73
2022/05/10 18:04:33;;;;;;;1.85;0.90;;;;;;;23.55;45.84;99309.72;8368675;28;20135;-73
2022/05/10 18:08:39;;;;;;;2.10;0.98;;;;;;;23.43;46.08;99305.97;8356507;28;20041;-73
2022/05/10 18:12:42;;;;;;;4.00;1.13;;;;;;;23.28;47.19;99312.16;8365545;28;20052;-73
2022/05/10 18:16:44;;;;;;;9.38;1.23;;;;;;;23.05;48.38;99310.84;8371727;28;20348;-73
2022/05/10 18:20:46;;;;;;;5.70;0.98;;;;;;;22.89;48.18;99310.00;8376846;28;20523;-73
2022/05/10 18:24:48;;;;;;;7.55;1.40;;;;;;;22.76;48.55;99309.78;8375124;28;20657;-73
2022/05/10 18:28:51;;;;;;;5.32;0.90;;;;;;;22.65;48.94;99314.00;8368729;28;20153;-73
2022/05/10 18:32:53;;;;;;;28.25;1.52;;;;;;;22.52;49.75;99314.66;8349181;28;20053;-73
2022/05/10 18:36:56;;;;;;;;;;;;;;;22.28;52.13;99314.19;8353355;28;20629;-74
2022/05/10 18:40:58;;;;;;;5.55;1.15;;;;;;;22.06;51.94;99316.25;8357795;28;19975;-73
2022/05/10 18:45:00;;;;;;;;;;;;;;;21.91;51.74;99319.69;8373752;28;20134;-73
2022/05/10 18:49:04;;;;;;;6.13;1.00;;;;;;;21.69;53.64;99325.19;8361466;28;19925;-73
2022/05/10 18:53:06;;;;;;;2.58;1.15;;;;;;;21.43;54.69;99326.50;8362890;28;20040;-74
2022/05/10 18:57:08;;;;;;;4.55;1.17;;;;;;;21.21;56.04;99339.03;8369102;28;20059;-74
2022/05/10 19:01:10;;;;;;;1.23;1.05;;;;;;;20.77;58.91;99339.34;8361611;28;20051;-74
2022/05/10 19:05:15;;;;;;;1.98;1.00;;;;;;;20.55;59.44;99338.66;8364948;28;20049;-73
2022/05/10 19:09:17;;;;;;;2.95;1.10;;;;;;;20.31;60.55;99343.22;8342120;28;20078;-74
2022/05/10 19:13:20;;;;;;;4.03;1.45;;;;;;;20.08;61.40;99341.59;8353918;28;20186;-74
2022/05/10 19:17:22;;;;;;;2.17;1.05;;;;;;;19.92;62.49;99352.81;8354913;28;20063;-73
2022/05/10 19:21:25;;;;;;;1.27;1.17;;;;;;;19.76;63.12;99351.78;8349848;28;20078;-73
2022/05/10 19:25:27;;;;;;;1.65;1.20;;;;;;;19.60;64.04;99356.81;8354404;28;20048;-73
2022/05/10 19:29:28;;;;;;;6.63;1.17;;;;;;;19.47;64.30;99357.34;8364615;28;20041;-73
2022/05/10 19:33:30;;;;;;;2.75;1.38;;;;;;;19.31;64.70;99357.97;8343751;28;20052;-73
2022/05/10 19:37:32;;;;;;;2.70;1.48;;;;;;;19.15;65.60;99358.66;8360441;28;20033;-74
2022/05/10 19:41:37;;;;;;;2.58;1.50;;;;;;;18.98;66.22;99354.91;8368708;28;20048;-74
2022/05/10 19:45:39;;;;;;;2.60;1.52;;;;;;;18.82;66.54;99363.44;8357625;28;20048;-74
2022/05/10 19:49:43;;;;;;;1.45;1.35;;;;;;;18.65;67.13;99369.34;8368675;28;20049;-73
2022/05/10 19:53:45;;;;;;;1.73;1.33;;;;;;;18.53;67.66;99367.16;8367081;28;20045;-74
2022/05/10 19:57:48;;;;;;;1.42;1.15;;;;;;;18.40;68.44;99369.38;8352270;28;20053;-73
2022/05/10 20:06:14;;;;;;;1.30;1.20;;;;;;;18.15;69.56;99356.28;8353916;28;20114;-74